createdAt,value
2017-07-21T00:00:15.241Z,5.10
2017-07-21T00:02:43.600Z,4.63
2017-07-21T00:05:11.176Z,5.03
2017-07-21T00:07:38.778Z,5.40
2017-07-21T00:10:06.355Z,5.63
2017-07-21T00:12:34.048Z,5.03
2017-07-21T00:15:02.420Z,4.60
2017-07-21T00:17:29.996Z,4.77
2017-07-21T00:19:57.600Z,5.13
2017-07-21T00:22:25.177Z,5.30
2017-07-21T00:24:52.787Z,4.80
2017-07-21T00:27:20.361Z,4.20
2017-07-21T00:29:47.946Z,4.50
2017-07-21T00:32:15.532Z,4.50
2017-07-21T00:34:43.144Z,4.53
2017-07-21T00:37:10.761Z,5.47
2017-07-21T00:39:38.397Z,4.77
2017-07-21T00:42:05.967Z,4.97
2017-07-21T00:44:34.328Z,4.83
2017-07-21T00:47:01.914Z,4.77
2017-07-21T00:49:30.267Z,4.60
2017-07-21T00:51:57.850Z,4.77
2017-07-21T00:54:25.451Z,5.07
2017-07-21T00:56:53.027Z,4.70
2017-07-21T00:59:20.616Z,5.03
2017-07-21T01:01:48.972Z,4.53
2017-07-21T01:04:16.568Z,4.50
2017-07-21T01:06:44.903Z,4.53
2017-07-21T01:09:12.515Z,4.67
2017-07-21T01:11:40.110Z,4.93
2017-07-21T01:14:07.680Z,4.50
2017-07-21T01:16:35.256Z,4.27
2017-07-21T01:19:02.845Z,4.67
2017-07-21T01:21:30.437Z,5.30
2017-07-21T01:23:58.021Z,4.40
2017-07-21T01:26:25.615Z,4.97
2017-07-21T01:28:53.957Z,5.20
2017-07-21T01:31:21.540Z,4.43
2017-07-21T01:33:49.123Z,4.67
2017-07-21T01:36:16.705Z,4.50
2017-07-21T01:38:44.272Z,4.80
2017-07-21T01:41:11.835Z,5.60
2017-07-21T01:43:39.394Z,4.67
2017-07-21T01:46:06.975Z,5.30
2017-07-21T01:48:34.572Z,5.53
2017-07-21T01:51:02.959Z,5.10
2017-07-21T01:53:30.530Z,5.10
2017-07-21T01:55:58.102Z,4.17
2017-07-21T01:58:25.704Z,4.47
2017-07-21T02:00:53.293Z,4.60
2017-07-21T02:03:20.933Z,4.87
2017-07-21T02:05:48.518Z,4.60
2017-07-21T02:08:16.146Z,4.57
2017-07-21T02:10:44.505Z,4.40
2017-07-21T02:13:12.083Z,4.77
2017-07-21T02:15:40.475Z,5.10
2017-07-21T02:18:08.073Z,4.67
2017-07-21T02:20:35.666Z,4.57
2017-07-21T02:23:03.244Z,4.70
2017-07-21T02:25:30.833Z,5.13
2017-07-21T02:27:58.489Z,5.33
2017-07-21T02:30:26.124Z,4.73
2017-07-21T02:32:53.724Z,4.40
2017-07-21T02:35:21.289Z,4.47
2017-07-21T02:37:48.870Z,4.00
2017-07-21T02:40:16.734Z,3.97
2017-07-21T02:42:44.355Z,4.10
2017-07-21T02:45:11.941Z,4.53
2017-07-21T02:47:39.519Z,4.10
2017-07-21T02:50:07.088Z,4.77
2017-07-21T02:52:34.944Z,4.40
2017-07-21T02:55:02.513Z,4.40
2017-07-21T02:57:30.089Z,4.77
2017-07-21T02:59:57.648Z,5.20
2017-07-21T03:02:25.233Z,4.73
2017-07-21T03:04:52.797Z,4.60
2017-07-21T03:07:20.380Z,5.00
2017-07-21T03:09:48.214Z,4.67
2017-07-21T03:12:15.832Z,4.17
2017-07-21T03:14:43.438Z,4.53
2017-07-21T03:17:11.035Z,4.20
2017-07-21T03:19:38.701Z,4.63
2017-07-21T03:22:06.334Z,4.50
2017-07-21T03:24:34.058Z,3.97
2017-07-21T03:27:01.646Z,4.43
2017-07-21T03:29:29.235Z,4.90
2017-07-21T03:31:56.831Z,4.07
2017-07-21T03:34:25.151Z,4.50
2017-07-21T03:36:52.729Z,4.53
2017-07-21T03:39:20.320Z,3.87
2017-07-21T03:41:47.925Z,4.43
2017-07-21T03:44:15.504Z,3.70
2017-07-21T03:46:43.099Z,3.77
2017-07-21T03:49:10.675Z,3.73
2017-07-21T03:51:39.016Z,3.63
2017-07-21T03:54:06.587Z,4.27
2017-07-21T03:56:34.342Z,3.60
2017-07-21T03:59:01.909Z,3.60
2017-07-21T04:01:29.513Z,3.90
2017-07-21T04:03:57.092Z,4.00
2017-07-21T04:06:24.674Z,3.70
2017-07-21T04:08:52.251Z,4.83
2017-07-21T04:11:19.823Z,4.07
2017-07-21T04:13:48.172Z,4.40
2017-07-21T04:16:15.772Z,4.47
2017-07-21T04:18:43.352Z,4.60
2017-07-21T04:21:10.997Z,4.07
2017-07-21T04:23:38.584Z,3.80
2017-07-21T04:26:06.157Z,4.60
2017-07-21T04:28:33.789Z,3.63
2017-07-21T04:31:01.413Z,4.00
2017-07-21T04:33:29.763Z,3.70
2017-07-21T04:35:57.335Z,4.20
2017-07-21T04:38:24.943Z,3.73
2017-07-21T04:40:52.517Z,3.73
2017-07-21T04:43:20.105Z,3.83
2017-07-21T04:45:47.689Z,3.93
2017-07-21T04:48:16.036Z,3.70
2017-07-21T04:50:43.633Z,3.70
2017-07-21T04:53:11.988Z,3.83
2017-07-21T04:55:39.564Z,3.80
2017-07-21T04:58:07.919Z,3.43
2017-07-21T05:00:35.495Z,3.67
2017-07-21T05:03:03.085Z,4.30
2017-07-21T05:05:30.683Z,4.00
2017-07-21T05:07:58.264Z,3.90
2017-07-21T05:10:25.836Z,4.43
2017-07-21T05:12:53.427Z,4.17
2017-07-21T05:15:21.000Z,3.93
2017-07-21T05:17:48.588Z,3.93
2017-07-21T05:20:16.153Z,4.40
2017-07-21T05:22:43.738Z,3.80
2017-07-21T05:25:11.324Z,4.13
2017-07-21T05:27:38.890Z,3.40
2017-07-21T05:30:06.458Z,4.30
2017-07-21T05:32:35.055Z,3.67
2017-07-21T05:35:02.625Z,3.40
2017-07-21T05:37:30.486Z,4.30
2017-07-21T05:39:58.065Z,3.70
2017-07-21T05:42:25.635Z,3.40
2017-07-21T05:44:53.230Z,3.67
2017-07-21T05:47:20.809Z,3.57
2017-07-21T05:49:48.388Z,3.43
2017-07-21T05:52:15.951Z,3.90
2017-07-21T05:54:43.534Z,3.27
2017-07-21T05:57:11.126Z,3.30
2017-07-21T05:59:38.711Z,3.70
2017-07-21T06:02:06.281Z,3.33
2017-07-21T06:04:33.874Z,3.53
2017-07-21T06:07:01.462Z,3.90
2017-07-21T06:09:29.025Z,3.43
2017-07-21T06:11:56.659Z,3.73
2017-07-21T06:14:24.261Z,3.43
2017-07-21T06:16:51.839Z,3.37
2017-07-21T06:19:19.422Z,3.20
2017-07-21T06:21:47.784Z,3.43
2017-07-21T06:24:15.376Z,3.30
2017-07-21T06:26:42.957Z,3.20
2017-07-21T06:29:10.544Z,3.40
2017-07-21T06:31:38.125Z,3.03
2017-07-21T06:34:06.480Z,4.30
2017-07-21T06:36:34.053Z,3.03
2017-07-21T06:39:01.662Z,2.80
2017-07-21T06:41:29.241Z,2.50
2017-07-21T06:43:56.829Z,2.47
2017-07-21T06:46:24.402Z,2.90
2017-07-21T06:48:52.742Z,3.33
2017-07-21T06:51:20.315Z,2.77
2017-07-21T06:53:47.901Z,3.30
2017-07-21T06:56:15.473Z,3.00
2017-07-21T06:58:43.068Z,2.93
2017-07-21T07:01:10.641Z,2.70
2017-07-21T07:03:38.233Z,3.50
2017-07-21T07:06:06.588Z,4.20
2017-07-21T07:08:37.782Z,3.50
2017-07-21T07:11:05.583Z,3.77
2017-07-21T07:13:33.806Z,3.13
2017-07-21T07:16:01.395Z,4.37
2017-07-21T07:18:28.962Z,2.70
2017-07-21T07:20:56.561Z,2.50
2017-07-21T07:23:24.136Z,2.80
2017-07-21T07:25:51.761Z,2.47
2017-07-21T07:28:19.382Z,2.50
2017-07-21T07:30:46.977Z,1.80
2017-07-21T07:33:15.161Z,2.10
2017-07-21T07:35:42.784Z,2.60
2017-07-21T07:38:10.375Z,2.37
2017-07-21T07:40:37.974Z,2.50
2017-07-21T07:43:05.559Z,2.80
2017-07-21T07:45:34.149Z,2.37
2017-07-21T07:48:01.811Z,2.50
2017-07-21T07:50:29.453Z,2.00
2017-07-21T07:52:57.065Z,2.03
2017-07-21T07:55:24.653Z,2.40
2017-07-21T07:58:01.349Z,2.07
2017-07-21T08:00:29.336Z,2.30
2017-07-21T08:02:57.211Z,2.20
2017-07-21T08:05:24.801Z,1.80
2017-07-21T08:07:52.644Z,1.90
2017-07-21T08:10:20.228Z,2.30
2017-07-21T08:12:47.907Z,2.30
2017-07-21T08:15:16.284Z,2.10
2017-07-21T08:17:43.873Z,2.17
2017-07-21T08:20:11.497Z,2.10
2017-07-21T08:22:39.847Z,2.57
2017-07-21T08:25:07.736Z,2.27
2017-07-21T08:27:35.329Z,2.07
2017-07-21T08:30:02.904Z,2.23
2017-07-21T08:32:30.523Z,2.53
2017-07-21T08:34:58.891Z,2.60
2017-07-21T08:37:27.259Z,2.47
2017-07-21T08:39:58.474Z,2.03
2017-07-21T08:42:26.065Z,2.47
2017-07-21T08:44:53.659Z,2.17
2017-07-21T08:47:21.262Z,2.73
2017-07-21T08:49:48.849Z,2.63
2017-07-21T08:52:16.701Z,2.13
2017-07-21T08:54:44.267Z,2.50
2017-07-21T08:57:11.837Z,2.40
2017-07-21T08:59:40.202Z,2.47
2017-07-21T09:02:07.768Z,2.50
2017-07-21T09:04:36.140Z,3.20
2017-07-21T09:07:04.471Z,3.30
2017-07-21T09:09:32.049Z,2.70
2017-07-21T09:11:59.643Z,2.50
2017-07-21T09:14:27.248Z,2.80
2017-07-21T09:16:54.868Z,2.43
2017-07-21T09:19:23.485Z,2.60
2017-07-21T09:21:51.073Z,2.70
2017-07-21T09:24:18.665Z,2.67
2017-07-21T09:26:46.253Z,2.77
2017-07-21T09:29:13.817Z,2.80
2017-07-21T09:31:41.396Z,2.43
2017-07-21T09:34:08.992Z,2.67
2017-07-21T09:36:36.565Z,2.80
2017-07-21T09:39:04.138Z,3.20
2017-07-21T09:41:31.726Z,2.60
2017-07-21T09:43:59.294Z,2.43
2017-07-21T09:46:27.189Z,2.50
2017-07-21T09:48:54.768Z,2.37
2017-07-21T09:51:22.332Z,2.50
2017-07-21T09:53:50.384Z,3.07
2017-07-21T09:56:17.957Z,2.80
2017-07-21T09:58:46.295Z,2.87
2017-07-21T10:01:13.863Z,2.70
2017-07-21T10:03:41.460Z,2.47
2017-07-21T10:06:09.054Z,3.17
2017-07-21T10:08:36.971Z,2.17
2017-07-21T10:11:04.581Z,2.60
2017-07-21T10:13:32.194Z,2.07
2017-07-21T10:16:00.600Z,2.33
2017-07-21T10:18:28.501Z,2.40
2017-07-21T10:20:56.117Z,2.77
2017-07-21T10:23:23.741Z,2.60
2017-07-21T10:25:51.927Z,2.57
2017-07-21T10:28:19.513Z,2.20
2017-07-21T10:30:47.171Z,2.40
2017-07-21T10:33:15.536Z,2.43
2017-07-21T10:35:43.201Z,2.60
2017-07-21T10:38:10.837Z,2.40
2017-07-21T10:40:38.416Z,2.27
2017-07-21T10:43:06.017Z,2.37
2017-07-21T10:45:34.645Z,2.57
2017-07-21T10:48:02.690Z,2.30
2017-07-21T10:50:30.269Z,2.20
2017-07-21T10:52:57.833Z,2.57
2017-07-21T10:55:25.467Z,2.70
2017-07-21T10:58:02.059Z,2.43
2017-07-21T11:00:30.053Z,2.20
2017-07-21T11:02:57.644Z,2.20
2017-07-21T11:05:25.253Z,2.00
2017-07-21T11:07:52.837Z,1.97
2017-07-21T11:10:20.788Z,2.20
2017-07-21T11:12:49.132Z,2.20
2017-07-21T11:15:18.073Z,2.37
2017-07-21T11:17:45.696Z,2.30
2017-07-21T11:20:13.294Z,2.30
2017-07-21T11:22:40.902Z,2.50
2017-07-21T11:25:08.531Z,2.20
2017-07-21T11:27:36.125Z,2.17
2017-07-21T11:30:03.708Z,2.70
2017-07-21T11:32:31.331Z,2.50
2017-07-21T11:34:58.904Z,2.67
2017-07-21T11:37:26.873Z,2.30
2017-07-21T11:39:54.452Z,2.30
2017-07-21T11:42:22.146Z,2.40
2017-07-21T11:44:49.729Z,2.00
2017-07-21T11:47:17.317Z,2.50
2017-07-21T11:49:44.907Z,2.80
2017-07-21T11:52:12.483Z,2.63
2017-07-21T11:54:40.224Z,2.77
2017-07-21T11:57:08.601Z,2.30
2017-07-21T11:59:36.958Z,2.37
2017-07-21T12:02:04.510Z,2.20
2017-07-21T12:04:32.165Z,3.10
2017-07-21T12:07:01.333Z,2.10
2017-07-21T12:09:30.013Z,2.30
2017-07-21T12:11:57.619Z,2.40
2017-07-21T12:14:26.008Z,2.73
2017-07-21T12:16:53.589Z,2.63
2017-07-21T12:19:21.294Z,1.97
2017-07-21T12:21:48.900Z,2.40
2017-07-21T12:24:17.360Z,2.20
2017-07-21T12:26:44.977Z,2.50
2017-07-21T12:29:12.602Z,2.50
2017-07-21T12:31:40.954Z,2.53
2017-07-21T12:34:08.565Z,2.80
2017-07-21T12:36:36.445Z,2.53
2017-07-21T12:39:04.024Z,2.50
2017-07-21T12:41:31.602Z,2.10
2017-07-21T12:43:59.184Z,2.40
2017-07-21T12:46:26.787Z,2.10
2017-07-21T12:48:54.437Z,2.20
2017-07-21T12:51:22.025Z,2.70
2017-07-21T12:53:49.634Z,2.10
2017-07-21T12:56:17.240Z,2.67
2017-07-21T12:58:44.830Z,2.50
2017-07-21T13:01:12.457Z,2.20
2017-07-21T13:03:40.059Z,2.53
2017-07-21T13:06:07.635Z,2.70
2017-07-21T13:08:35.365Z,2.30
2017-07-21T13:11:03.009Z,2.50
2017-07-21T13:13:30.920Z,2.30
2017-07-21T13:15:58.576Z,2.50
2017-07-21T13:18:26.225Z,2.50
2017-07-21T13:20:55.597Z,2.97
2017-07-21T13:23:23.169Z,2.53
2017-07-21T13:25:50.781Z,3.70
2017-07-21T13:28:18.378Z,2.43
2017-07-21T13:30:45.988Z,2.83
2017-07-21T13:33:13.628Z,3.07
2017-07-21T13:35:41.207Z,2.70
2017-07-21T13:38:08.958Z,2.30
2017-07-21T13:40:37.286Z,2.73
2017-07-21T13:43:04.925Z,2.80
2017-07-21T13:45:32.518Z,2.20
2017-07-21T13:48:00.116Z,2.30
2017-07-21T13:50:28.445Z,2.40
2017-07-21T13:52:56.438Z,3.10
2017-07-21T13:55:24.036Z,2.50
2017-07-21T13:57:51.619Z,2.37
2017-07-21T14:00:19.217Z,3.10
2017-07-21T14:02:47.028Z,2.90
2017-07-21T14:05:14.612Z,2.90
2017-07-21T14:07:42.200Z,2.80
2017-07-21T14:10:10.806Z,2.90
2017-07-21T14:12:38.385Z,2.60
2017-07-21T14:15:06.150Z,2.93
2017-07-21T14:17:33.749Z,2.80
2017-07-21T14:20:01.364Z,4.13
2017-07-21T14:22:29.002Z,2.50
2017-07-21T14:24:56.582Z,3.03
2017-07-21T14:27:24.258Z,2.50
2017-07-21T14:29:51.861Z,2.53
2017-07-21T14:32:19.508Z,2.33
2017-07-21T14:36:13.171Z,2.90
2017-07-21T14:38:40.766Z,2.90
2017-07-21T14:41:08.365Z,2.57
2017-07-21T14:43:36.295Z,2.43
2017-07-21T14:46:04.652Z,2.60
2017-07-21T14:48:33.032Z,3.00
2017-07-21T14:51:00.650Z,2.60
2017-07-21T14:53:28.216Z,3.60
2017-07-21T14:55:55.836Z,3.20
2017-07-21T14:58:23.480Z,3.10
2017-07-21T15:00:51.905Z,3.17
2017-07-21T15:03:19.495Z,3.20
2017-07-21T15:05:47.144Z,2.93
2017-07-21T15:08:14.731Z,3.37
2017-07-21T15:10:42.677Z,3.00
2017-07-21T15:13:10.320Z,3.33
2017-07-21T15:15:38.079Z,3.43
2017-07-21T15:18:06.129Z,2.90
2017-07-21T15:20:34.512Z,3.23
2017-07-21T15:23:02.099Z,3.50
2017-07-21T15:25:29.841Z,4.10
2017-07-21T15:27:57.423Z,3.80
2017-07-21T15:30:25.884Z,3.90
2017-07-21T15:32:53.469Z,4.17
2017-07-21T15:35:21.081Z,4.43
2017-07-21T15:37:48.734Z,4.10
2017-07-21T15:40:17.105Z,3.70
2017-07-21T15:42:44.719Z,3.67
2017-07-21T15:45:12.298Z,4.23
2017-07-21T15:47:40.166Z,3.60
2017-07-21T15:50:07.752Z,3.90
2017-07-21T15:52:36.522Z,3.40
2017-07-21T15:55:04.125Z,3.40
2017-07-21T15:57:31.717Z,3.67
2017-07-21T15:59:59.309Z,3.60
2017-07-21T16:02:27.655Z,3.50
2017-07-21T16:04:55.237Z,3.60
2017-07-21T16:07:22.980Z,3.63
2017-07-21T16:09:51.627Z,3.87
2017-07-21T16:12:19.266Z,4.00
2017-07-21T16:14:46.891Z,3.90
2017-07-21T16:17:14.558Z,3.50
2017-07-21T16:19:43.007Z,4.53
2017-07-21T16:22:10.734Z,5.00
2017-07-21T16:24:39.100Z,3.90
2017-07-21T16:27:08.435Z,4.60
2017-07-21T16:29:36.025Z,5.27
2017-07-21T16:32:03.620Z,3.60
2017-07-21T16:34:32.522Z,3.73
2017-07-21T16:37:00.931Z,4.30
2017-07-21T16:39:28.875Z,4.00
2017-07-21T16:41:56.519Z,3.70
2017-07-21T16:44:24.130Z,4.00
2017-07-21T16:46:51.725Z,4.30
2017-07-21T16:49:19.307Z,3.50
2017-07-21T16:51:46.864Z,3.70
2017-07-21T16:54:14.419Z,3.57
2017-07-21T16:56:42.919Z,3.23
2017-07-21T16:59:10.491Z,3.63
2017-07-21T17:01:38.089Z,3.50
2017-07-21T17:04:05.661Z,3.93
2017-07-21T17:06:33.306Z,3.87
2017-07-21T17:09:00.877Z,3.77
2017-07-21T17:11:28.489Z,4.10
2017-07-21T17:13:56.053Z,3.67
2017-07-21T17:16:23.606Z,4.00
2017-07-21T17:18:51.195Z,3.93
2017-07-21T17:21:18.797Z,3.80
2017-07-21T17:23:46.390Z,3.80
2017-07-21T17:26:14.013Z,4.07
2017-07-21T17:28:41.597Z,3.80
2017-07-21T17:31:09.199Z,3.90
2017-07-21T17:33:36.790Z,4.23
2017-07-21T17:36:05.168Z,3.90
2017-07-21T17:38:33.518Z,4.20
2017-07-21T17:41:01.397Z,5.60
2017-07-21T17:43:28.985Z,3.90
2017-07-21T17:45:56.579Z,4.10
2017-07-21T17:48:24.206Z,3.77
2017-07-21T17:50:52.530Z,3.67
2017-07-21T17:53:20.124Z,3.77
2017-07-21T17:55:47.721Z,3.77
2017-07-21T17:58:15.873Z,3.70
2017-07-21T18:00:43.479Z,3.43
2017-07-21T18:03:11.070Z,3.80
2017-07-21T18:05:40.990Z,4.07
2017-07-21T18:08:08.860Z,4.30
2017-07-21T18:10:36.464Z,4.10
2017-07-21T18:13:04.072Z,4.10
2017-07-21T18:15:31.823Z,5.23
2017-07-21T18:17:59.435Z,3.73
2017-07-21T18:20:27.042Z,4.67
2017-07-21T18:22:54.828Z,4.40
2017-07-21T18:25:22.444Z,4.10
2017-07-21T18:27:50.072Z,3.80
2017-07-21T18:30:17.682Z,3.80
2017-07-21T18:32:45.278Z,4.10
2017-07-21T18:35:13.694Z,3.93
2017-07-21T18:37:41.315Z,4.87
2017-07-21T18:40:08.905Z,4.17
2017-07-21T18:42:36.529Z,3.70
2017-07-21T18:45:04.086Z,3.53
2017-07-21T18:47:32.198Z,3.63
2017-07-21T18:49:59.950Z,3.83
2017-07-21T18:52:27.680Z,2.97
2017-07-21T18:54:55.262Z,3.40
2017-07-21T18:57:22.858Z,3.20
2017-07-21T18:59:51.000Z,3.50
2017-07-21T19:02:18.696Z,3.50
2017-07-21T19:04:46.678Z,3.70
2017-07-21T19:07:14.239Z,3.70
2017-07-21T19:09:41.812Z,3.57
2017-07-21T19:12:10.164Z,3.30
2017-07-21T19:14:37.748Z,3.10
2017-07-21T19:17:06.328Z,3.80
2017-07-21T19:19:34.724Z,3.20
2017-07-21T19:22:03.101Z,3.73
2017-07-21T19:24:31.494Z,3.00
2017-07-21T19:26:59.185Z,3.50
2017-07-21T19:29:26.759Z,3.40
2017-07-21T19:31:54.354Z,3.10
2017-07-21T19:34:21.920Z,3.47
2017-07-21T19:36:50.281Z,3.67
2017-07-21T19:39:17.908Z,3.33
2017-07-21T19:41:45.478Z,3.57
2017-07-21T19:44:13.102Z,3.50
2017-07-21T19:46:40.869Z,3.20
2017-07-21T19:49:08.517Z,2.90
2017-07-21T19:51:36.128Z,3.27
2017-07-21T19:54:03.732Z,3.17
2017-07-21T19:56:31.405Z,3.50
2017-07-21T19:58:59.007Z,3.27
2017-07-21T20:01:26.631Z,3.60
2017-07-21T20:03:54.197Z,3.30
2017-07-21T20:06:21.787Z,3.30
2017-07-21T20:08:49.374Z,3.40
2017-07-21T20:11:16.959Z,3.40
2017-07-21T20:13:44.520Z,3.00
2017-07-21T20:16:12.133Z,3.40
2017-07-21T20:18:39.713Z,3.37
2017-07-21T20:21:08.089Z,3.27
2017-07-21T20:23:36.426Z,3.23
2017-07-21T20:26:04.022Z,3.70
2017-07-21T20:28:31.604Z,3.50
2017-07-21T20:30:59.210Z,3.67
2017-07-21T20:33:26.772Z,3.50
2017-07-21T20:35:54.370Z,3.53
2017-07-21T20:38:22.725Z,3.17
2017-07-21T20:40:50.329Z,3.77
2017-07-21T20:43:17.916Z,3.20
2017-07-21T20:45:45.556Z,3.33
2017-07-21T20:48:13.160Z,4.00
2017-07-21T20:50:41.537Z,3.63
2017-07-21T20:53:09.124Z,3.07
2017-07-21T20:55:37.483Z,3.27
2017-07-21T20:58:05.099Z,2.90
2017-07-21T21:00:32.746Z,3.60
2017-07-21T21:03:00.312Z,3.23
2017-07-21T21:05:27.890Z,3.20
2017-07-21T21:07:55.492Z,3.70
2017-07-21T21:10:23.863Z,3.20
2017-07-21T21:12:51.442Z,3.97
2017-07-21T21:15:19.369Z,2.90
2017-07-21T21:17:46.954Z,3.53
2017-07-21T21:20:15.286Z,3.13
2017-07-21T21:22:42.868Z,3.20
2017-07-21T21:25:10.452Z,2.83
2017-07-21T21:27:38.808Z,3.77
2017-07-21T21:30:06.435Z,3.23
2017-07-21T21:32:34.362Z,3.30
2017-07-21T21:35:01.937Z,2.80
2017-07-21T21:37:31.362Z,3.50
2017-07-21T21:39:59.988Z,3.10
2017-07-21T21:42:27.567Z,3.77
2017-07-21T21:44:55.924Z,3.17
2017-07-21T21:47:23.488Z,3.30
2017-07-21T21:49:51.063Z,3.10
2017-07-21T21:52:19.429Z,2.93
2017-07-21T21:54:47.014Z,3.67
2017-07-21T21:57:14.582Z,3.17
2017-07-21T21:59:42.292Z,4.17
2017-07-21T22:02:09.877Z,3.30
2017-07-21T22:04:37.481Z,3.20
2017-07-21T22:07:05.163Z,3.43
2017-07-21T22:09:32.719Z,3.80
2017-07-21T22:12:00.309Z,2.97
2017-07-21T22:14:27.891Z,3.33
2017-07-21T22:16:56.245Z,3.60
2017-07-21T22:19:23.834Z,3.40
2017-07-21T22:21:51.395Z,4.23
2017-07-21T22:24:19.755Z,3.40
2017-07-21T22:26:47.329Z,3.17
2017-07-21T22:29:15.268Z,3.03
2017-07-21T22:31:42.854Z,3.43
2017-07-21T22:34:10.458Z,3.47
2017-07-21T22:36:38.093Z,3.30
2017-07-21T22:39:05.681Z,3.33
2017-07-21T22:41:33.284Z,3.50
2017-07-21T22:44:01.604Z,3.33
2017-07-21T22:46:29.183Z,3.47
2017-07-21T22:48:56.784Z,3.97
2017-07-21T22:51:24.383Z,3.20
2017-07-21T22:53:52.055Z,3.20
2017-07-21T22:56:19.637Z,3.07
2017-07-21T22:58:47.239Z,4.77
2017-07-21T23:01:14.840Z,3.43
2017-07-21T23:03:42.423Z,3.30
2017-07-21T23:06:10.005Z,3.90
2017-07-21T23:08:37.581Z,3.97
2017-07-21T23:11:05.166Z,3.17
2017-07-21T23:13:32.745Z,4.30
2017-07-21T23:16:00.357Z,3.80
2017-07-21T23:18:27.950Z,4.20
2017-07-21T23:20:55.551Z,3.63
2017-07-21T23:23:23.870Z,3.30
2017-07-21T23:25:51.461Z,3.50
2017-07-21T23:28:19.093Z,2.97
2017-07-21T23:30:46.665Z,2.70
2017-07-21T23:33:14.245Z,2.80
2017-07-21T23:35:41.820Z,2.60
2017-07-21T23:38:10.178Z,2.90
2017-07-21T23:40:37.761Z,2.67
2017-07-21T23:43:05.352Z,2.63
2017-07-21T23:45:32.926Z,3.03
2017-07-21T23:48:00.517Z,2.70
2017-07-21T23:50:28.101Z,2.50
2017-07-21T23:52:55.685Z,2.70
2017-07-21T23:55:23.278Z,2.20
2017-07-21T23:57:50.857Z,2.67
